createdAt,value
2024-01-01T00:03:20.418Z,101941.41
2024-01-01T00:08:22.503Z,101933.38
2024-01-01T00:13:24.641Z,101922.34
2024-01-01T00:18:26.804Z,101920.63
2024-01-01T00:23:28.897Z,101909.72
2024-01-01T00:28:31.062Z,101912.34
2024-01-01T00:33:33.328Z,101912.28
2024-01-01T00:38:35.473Z,101915.94
2024-01-01T00:43:37.672Z,101908.09
2024-01-01T00:48:39.998Z,101916.72
2024-01-01T00:53:42.243Z,101908.78
2024-01-01T00:58:44.354Z,101910.56
2024-01-01T01:03:46.469Z,101903.56
2024-01-01T01:08:48.527Z,101891.25
2024-01-01T01:13:50.766Z,101907.41
2024-01-01T01:18:52.992Z,101929.09
2024-01-01T01:23:55.833Z,101916.72
2024-01-01T01:29:00.958Z,101916.88
2024-01-01T01:34:03.285Z,101930.22
2024-01-01T01:39:05.630Z,101939.75
2024-01-01T01:44:07.833Z,101929.09
2024-01-01T01:49:10.133Z,101938.75
2024-01-01T01:54:12.335Z,101940.09
2024-01-01T01:59:14.515Z,101942.06
2024-01-01T02:04:18.182Z,101956.91
2024-01-01T02:09:20.682Z,101960.41
2024-01-01T02:14:25.324Z,101957.75
2024-01-01T02:19:29.080Z,101951.72
2024-01-01T02:24:31.324Z,101959.72
2024-01-01T02:29:33.474Z,101959.66
2024-01-01T02:34:35.635Z,101959.66
2024-01-01T02:39:37.705Z,101965.81
2024-01-01T02:44:39.825Z,101958.00
2024-01-01T02:49:42.016Z,101958.00
2024-01-01T02:54:44.181Z,101949.94
2024-01-01T02:59:46.344Z,101936.69
2024-01-01T03:04:48.902Z,101930.53
2024-01-01T03:09:51.937Z,101928.91
2024-01-01T03:14:54.134Z,101928.03
2024-01-01T03:19:56.307Z,101922.66
2024-01-01T03:24:58.455Z,101925.25
2024-01-01T03:30:00.584Z,101914.72
2024-01-01T03:35:03.473Z,101910.28
2024-01-01T03:40:07.839Z,101905.94
2024-01-01T03:45:10.983Z,101905.06
2024-01-01T03:50:14.939Z,101894.34
2024-01-01T03:55:17.609Z,101882.03
2024-01-01T04:00:20.008Z,101879.47
2024-01-01T04:05:22.377Z,101875.28
2024-01-01T04:10:24.467Z,101876.03
2024-01-01T04:15:26.612Z,101886.53
2024-01-01T04:20:28.831Z,101882.19
2024-01-01T04:25:31.040Z,101879.47
2024-01-01T04:30:33.228Z,101880.41
2024-01-01T04:35:35.759Z,101881.44
2024-01-01T04:40:38.025Z,101876.03
2024-01-01T04:45:40.206Z,101863.66
2024-01-01T04:50:42.579Z,101869.72
2024-01-01T04:55:44.775Z,101862.72
2024-01-01T05:00:46.939Z,101870.00
2024-01-01T05:05:49.048Z,101866.56
2024-01-01T05:10:51.273Z,101878.88
2024-01-01T05:15:53.413Z,101887.47
2024-01-01T05:20:55.588Z,101883.91
2024-01-01T05:25:57.746Z,101882.19
2024-01-01T05:30:59.862Z,101878.69
2024-01-01T05:36:01.974Z,101873.56
2024-01-01T05:41:04.139Z,101878.69
2024-01-01T05:46:07.418Z,101883.91
2024-01-01T05:51:10.672Z,101893.56
2024-01-01T05:56:12.912Z,101885.69
2024-01-01T06:01:15.047Z,101885.88
2024-01-01T06:06:17.187Z,101897.22
2024-01-01T06:11:19.311Z,101904.22
2024-01-01T06:16:21.458Z,101912.09
2024-01-01T06:21:23.465Z,101922.75
2024-01-01T06:26:25.637Z,101926.44
2024-01-01T06:31:27.706Z,101934.38
2024-01-01T06:36:29.837Z,101941.34
2024-01-01T06:41:31.887Z,101951.00
2024-01-01T06:46:34.144Z,101955.38
2024-01-01T06:51:36.302Z,101964.31
2024-01-01T06:56:41.431Z,101965.16
2024-01-01T07:01:44.656Z,101964.31
2024-01-01T07:06:46.737Z,101958.94
2024-01-01T07:11:48.872Z,101966.03
2024-01-01T07:16:55.220Z,101968.84
2024-01-01T07:21:57.264Z,101978.41
2024-01-01T07:26:59.323Z,101983.88
2024-01-01T07:32:01.553Z,101979.38
2024-01-01T07:37:05.913Z,101983.69
2024-01-01T07:42:09.773Z,101986.28
2024-01-01T07:47:12.023Z,101987.19
2024-01-01T07:52:14.524Z,101998.72
2024-01-01T07:57:16.588Z,102001.38
2024-01-01T08:02:19.210Z,102003.19
2024-01-01T08:07:21.338Z,102006.66
2024-01-01T08:12:23.485Z,102003.19
2024-01-01T08:17:25.640Z,102013.84
2024-01-01T08:22:27.713Z,102015.56
2024-01-01T08:27:29.767Z,102018.97
2024-01-01T08:32:31.913Z,102011.94
2024-01-01T08:37:34.303Z,102007.53
2024-01-01T08:42:37.703Z,102011.13
2024-01-01T08:47:42.066Z,102021.78
2024-01-01T08:52:46.321Z,102031.44
2024-01-01T08:57:48.491Z,102039.28
2024-01-01T09:02:50.522Z,102035.78
2024-01-01T09:07:52.745Z,102044.56
2024-01-01T09:12:54.869Z,102046.47
2024-01-01T09:17:57.123Z,102047.31
2024-01-01T09:22:59.392Z,102042.88
2024-01-01T09:28:01.460Z,102043.03
2024-01-01T09:33:03.848Z,102053.38
2024-01-01T09:38:06.392Z,102057.81
2024-01-01T09:43:08.654Z,102067.63
2024-01-01T09:48:11.266Z,102066.78
2024-01-01T09:53:13.734Z,102062.41
2024-01-01T09:58:15.815Z,102061.41
2024-01-01T10:03:17.956Z,102063.03
2024-01-01T10:08:20.178Z,102052.75
2024-01-01T10:13:25.780Z,102065.75
2024-01-01T10:18:27.905Z,102064.06
2024-01-01T10:23:30.722Z,102058.66
2024-01-01T10:28:34.277Z,102051.75
2024-01-01T10:33:37.107Z,102040.31
2024-01-01T10:38:41.048Z,102038.53
2024-01-01T10:43:44.982Z,102032.31
2024-01-01T10:48:47.897Z,102034.84
2024-01-01T10:54:11.199Z,102035.78
2024-01-01T10:59:25.322Z,102029.56
2024-01-01T11:04:27.490Z,102030.47
2024-01-01T11:09:30.715Z,102019.91
2024-01-01T11:14:39.711Z,102028.69
2024-01-01T11:19:48.444Z,102025.13
2024-01-01T11:24:51.741Z,102016.31
2024-01-01T11:29:54.927Z,102011.13
2024-01-01T11:35:13.610Z,101993.44
2024-01-01T11:40:15.878Z,101996.00
2024-01-01T11:45:19.370Z,101977.47
2024-01-01T11:50:32.009Z,101973.09
2024-01-01T11:55:34.153Z,101962.53
2024-01-01T12:00:37.582Z,101963.50
2024-01-01T12:05:43.138Z,101959.88
2024-01-01T12:10:45.395Z,101952.78
2024-01-01T12:15:49.609Z,101957.22
2024-01-01T12:20:51.958Z,101952.91
2024-01-01T12:26:06.263Z,101948.53
2024-01-01T12:31:08.369Z,101941.34
2024-01-01T12:36:10.468Z,101941.28
2024-01-01T12:41:17.255Z,101929.81
2024-01-01T12:46:19.486Z,101937.03
2024-01-01T12:51:26.578Z,101934.38
2024-01-01T12:56:29.162Z,101927.38
2024-01-01T13:01:31.346Z,101929.81
2024-01-01T13:06:33.536Z,101930.63
2024-01-01T13:11:35.681Z,101920.09
2024-01-01T13:16:37.773Z,101912.16
2024-01-01T13:21:39.989Z,101916.66
2024-01-01T13:26:42.044Z,101914.03
2024-01-01T13:31:44.118Z,101913.94
2024-01-01T13:36:46.324Z,101905.84
2024-01-01T13:41:48.490Z,101903.28
2024-01-01T13:46:50.808Z,101899.84
2024-01-01T13:51:53.679Z,101902.44
2024-01-01T13:56:55.877Z,101903.28
2024-01-01T14:01:58.329Z,101900.72
2024-01-01T14:07:00.420Z,101905.84
2024-01-01T14:12:04.952Z,101905.94
2024-01-01T14:17:07.056Z,101905.06
2024-01-01T14:22:09.169Z,101906.72
2024-01-01T14:27:12.638Z,101906.78
2024-01-01T14:32:14.873Z,101917.38
2024-01-01T14:37:17.037Z,101917.38
2024-01-01T14:42:19.704Z,101912.16
2024-01-01T14:47:21.789Z,101913.88
2024-01-01T14:52:24.006Z,101917.31
2024-01-01T14:57:26.086Z,101907.56
2024-01-01T15:02:28.256Z,101905.06
2024-01-01T15:07:30.462Z,101915.66
2024-01-01T15:12:32.844Z,101917.38
2024-01-01T15:17:35.746Z,101922.50
2024-01-01T15:22:37.988Z,101926.00
2024-01-01T15:27:39.989Z,101924.22
2024-01-01T15:32:42.191Z,101926.25
2024-01-01T15:37:44.388Z,101933.25
2024-01-01T15:42:46.781Z,101937.50
2024-01-01T15:47:49.147Z,101949.81
2024-01-01T15:52:51.381Z,101956.84
2024-01-01T15:57:53.490Z,101962.19
2024-01-01T16:02:55.594Z,101972.03
2024-01-01T16:07:59.010Z,101970.25
2024-01-01T16:13:01.048Z,101971.09
2024-01-01T16:18:03.484Z,101979.03
2024-01-01T16:23:06.758Z,101988.84
2024-01-01T16:28:09.696Z,101987.13
2024-01-01T16:33:11.802Z,101989.69
2024-01-01T16:38:16.817Z,101994.13
2024-01-01T16:43:18.848Z,102002.00
2024-01-01T16:48:21.541Z,102007.38
2024-01-01T16:53:24.777Z,102040.06
2024-01-01T16:58:26.940Z,102070.03
2024-01-01T17:03:29.025Z,102072.75
2024-01-01T17:08:31.197Z,102066.41
2024-01-01T17:13:33.307Z,102093.69
2024-01-01T17:18:35.928Z,102100.81
2024-01-01T17:23:38.968Z,102102.59
2024-01-01T17:28:41.069Z,102095.66
2024-01-01T17:33:46.280Z,102080.69
2024-01-01T17:38:50.661Z,102094.66
2024-01-01T17:43:52.763Z,102094.66
2024-01-01T17:48:54.987Z,102112.22
2024-01-01T17:53:57.227Z,102128.22
2024-01-01T17:58:59.379Z,102128.34
2024-01-01T18:04:01.509Z,102134.44
2024-01-01T18:09:04.130Z,102140.59
2024-01-01T18:14:06.256Z,102145.81
2024-01-01T18:19:08.514Z,102154.59
2024-01-01T18:24:13.638Z,102153.75
2024-01-01T18:29:15.858Z,102144.09
2024-01-01T18:34:18.440Z,102127.41
2024-01-01T18:39:21.431Z,102124.63
2024-01-01T18:44:23.639Z,102128.97
2024-01-01T18:49:25.867Z,102119.34
2024-01-01T18:54:29.493Z,102132.56
2024-01-01T18:59:31.625Z,102131.78
2024-01-01T19:04:34.900Z,102121.34
2024-01-01T19:09:40.253Z,102129.94
2024-01-01T19:14:43.766Z,102139.72
2024-01-01T19:19:45.926Z,102135.38
2024-01-01T19:24:51.019Z,102153.03
2024-01-01T19:29:53.185Z,102152.97
2024-01-01T19:34:55.309Z,102157.41
2024-01-01T19:39:57.340Z,102165.47
2024-01-01T19:44:59.414Z,102169.78
2024-01-01T19:50:01.601Z,102165.41
2024-01-01T19:55:04.031Z,102161.84
2024-01-01T20:00:06.627Z,102149.69
2024-01-01T20:05:08.798Z,102155.59
2024-01-01T20:10:10.915Z,102170.63
2024-01-01T20:15:13.292Z,102173.34
2024-01-01T20:20:15.645Z,102169.78
2024-01-01T20:25:17.935Z,102177.72
2024-01-01T20:30:20.166Z,102168.91
2024-01-01T20:35:23.861Z,102171.63
2024-01-01T20:40:26.021Z,102182.22
2024-01-01T20:45:28.086Z,102183.06
2024-01-01T20:50:30.238Z,102189.22
2024-01-01T20:55:32.443Z,102198.97
2024-01-01T21:00:36.322Z,102206.91
2024-01-01T21:05:38.532Z,102214.94
2024-01-01T21:10:40.777Z,102217.59
2024-01-01T21:15:44.280Z,102219.28
2024-01-01T21:20:46.502Z,102210.56
2024-01-01T21:25:48.728Z,102205.19
2024-01-01T21:30:50.901Z,102210.56
2024-01-01T21:35:53.025Z,102207.94
2024-01-01T21:40:55.156Z,102213.97
2024-01-01T21:45:57.202Z,102213.13
2024-01-01T21:50:59.219Z,102221.06
2024-01-01T21:56:01.276Z,102227.44
2024-01-01T22:01:05.018Z,102242.34
2024-01-01T22:06:07.352Z,102240.53
2024-01-01T22:11:09.564Z,102241.47
2024-01-01T22:16:11.776Z,102244.88
2024-01-01T22:21:18.251Z,102245.13
2024-01-01T22:26:20.971Z,102253.84
2024-01-01T22:31:23.131Z,102257.41
2024-01-01T22:36:25.378Z,102261.72
2024-01-01T22:41:27.614Z,102263.50
2024-01-01T22:46:29.829Z,102268.00
2024-01-01T22:51:31.943Z,102261.84
2024-01-01T22:56:34.079Z,102257.50
2024-01-01T23:01:36.253Z,102262.66
2024-01-01T23:06:38.307Z,102248.56
2024-01-01T23:11:40.513Z,102248.63
2024-01-01T23:16:42.636Z,102250.41
2024-01-01T23:21:45.083Z,102251.25
2024-01-01T23:26:47.280Z,102233.66
2024-01-01T23:31:49.530Z,102233.59
2024-01-01T23:36:51.834Z,102228.38
2024-01-01T23:41:53.876Z,102229.41
2024-01-01T23:46:56.147Z,102225.81
2024-01-01T23:51:59.216Z,102215.13
2024-01-01T23:57:01.225Z,102221.47
